Oxbow, Canada
Current Conditions -  °F | °C
As of 4:00 PM on Monday 20 Oct 2014 (Local Time) from CYEN Reporting Station
Few Clouds Few Clouds  
Wind Chill: 72°   Ceiling: Unl
Heat Index: 72°   Visibility: 15mi
Dew Point: 41°   Wind: 17mph
Humidity: 33%   Direction: 160°SSE
Pressure: 29.84"   Gusts: NA
Location:  49.22°N, 102.17°W
Report Text: CYEN 202200Z 16015KT 15SM FEW240 22/05 A2984 RMK CI1 SLP113
Loading
Personal Weather Stations






























Interactive Weather Map
Tropical Storm Tracking
New forecast layout! Learn more

10-Day Weather Forecast

Advertisements
Track Severe Weather on mobile